Time;durP1;ratioP1;P1;durP2;ratioP2;P2;SDS_P1;SDS_P2;PMS_P1;PMS_P2;Temp;Humidity;BMP_temperature;BMP_pressure;BME280_temperature;BME280_humidity;BME280_pressure;Samples;Min_cycle;Max_cycle;Signal;HPM_P1;HPM_P2
2023/09/19 00:00:34;;;;;;;;;;;;;;;14.70;94.74;100733.69;4975788;28;19925;-75
2023/09/19 00:02:59;;;;;;;;;;;;;;;14.64;93.98;100728.75;4976030;28;19914;-75
2023/09/19 00:05:28;;;;;;;;;;;;;;;14.66;94.27;100726.03;4976181;28;20076;-75
2023/09/19 00:07:55;;;;;;;;;;;;;;;14.66;94.67;100732.19;4974923;28;20312;-75
2023/09/19 00:10:24;;;;;;;;;;;;;;;14.65;94.72;100725.19;4975371;28;19922;-75
2023/09/19 00:12:51;;;;;;;;;;;;;;;14.63;94.78;100727.06;4975726;28;19921;-75
2023/09/19 00:15:17;;;;;;;;;;;;;;;14.65;94.65;100734.91;4975457;28;19980;-75
2023/09/19 00:17:47;;;;;;;;;;;;;;;14.66;95.14;100733.94;4975483;28;20213;-75
2023/09/19 00:20:13;;;;;;;;;;;;;;;14.67;95.42;100735.66;4975679;28;20012;-75
2023/09/19 00:22:44;;;;;;;;;;;;;;;14.66;95.51;100736.56;4975601;28;19961;-74
2023/09/19 00:25:11;;;;;;;;;;;;;;;14.65;95.39;100734.91;4975778;28;19924;-75
2023/09/19 00:27:41;;;;;;;;;;;;;;;14.65;95.81;100738.38;4975301;28;19981;-75
2023/09/19 00:30:08;;;;;;;;;;;;;;;14.65;95.70;100733.09;4975801;28;19985;-75
2023/09/19 00:32:34;;;;;;;;;;;;;;;14.66;95.99;100745.34;4976099;28;19918;-75
2023/09/19 00:34:59;;;;;;;;;;;;;;;14.66;96.02;100750.63;4976544;28;20260;-75
2023/09/19 00:37:25;;;;;;;;;;;;;;;14.66;96.19;100749.75;4979762;28;19918;-75
2023/09/19 00:39:50;;;;;;;;;;;;;;;14.63;96.19;100744.69;4979066;28;20288;-75
2023/09/19 00:42:21;;;;;;;;;;;;;;;14.60;95.54;100753.59;4979350;28;20177;-75
2023/09/19 00:44:47;;;;;;;;;;;;;;;14.59;95.32;100752.75;4978915;28;20157;-75
2023/09/19 00:47:17;;;;;;;;;;;;;;;14.56;94.50;100750.25;4979093;28;19917;-75
2023/09/19 00:49:50;;;;;;;;;;;;;;;14.55;93.70;100750.34;4978941;28;20243;-75
2023/09/19 00:52:19;;;;;;;;;;;;;;;14.55;93.97;100751.22;4979296;28;19918;-75
2023/09/19 00:54:45;;;;;;;;;;;;;;;14.54;94.00;100752.16;4978312;28;19925;-75
2023/09/19 00:57:10;;;;;;;;;;;;;;;14.56;94.34;100752.06;4979318;28;19926;-75
2023/09/19 00:59:35;;;;;;;;;;;;;;;14.56;94.49;100760.81;4978190;28;19933;-75
2023/09/19 01:05:05;;;;;;;;;;;;;;;14.50;93.16;100760.34;4959284;28;19924;-75
2023/09/19 01:07:33;;;;;;;;;;;;;;;14.51;93.35;100767.28;4973595;28;19945;-75
2023/09/19 01:09:59;;;;;;;;;;;;;;;14.50;93.62;100770.88;4973326;28;20409;-75
2023/09/19 01:12:33;;;;;;;;;;;;;;;14.51;93.59;100770.75;4978408;28;19918;-75
2023/09/19 01:15:06;;;;;;;;;;;;;;;14.52;93.83;100771.63;4975946;28;19918;-75
2023/09/19 01:20:11;;;;;;;;;;;;;;;14.46;92.53;100762.31;4976882;28;19956;-75
2023/09/19 01:22:57;;;;;;;;;;;;;;;14.48;92.80;100764.81;4976229;28;19917;-75
2023/09/19 01:25:31;;;;;;;;;;;;;;;14.51;93.10;100768.13;4977566;28;19992;-75
2023/09/19 01:27:57;;;;;;;;;;;;;;;14.54;93.57;100770.59;4976862;28;19918;-75
2023/09/19 01:30:27;;;;;;;;;;;;;;;14.55;93.75;100766.16;4977099;28;19922;-75
2023/09/19 01:32:53;;;;;;;;;;;;;;;14.53;94.03;100770.69;4977141;28;19922;-75
2023/09/19 01:35:18;;;;;;;;;;;;;;;14.55;94.28;100774.94;4976985;28;19976;-75
2023/09/19 01:37:44;;;;;;;;;;;;;;;14.51;93.98;100767.28;4992864;28;19918;-75
2023/09/19 01:40:16;;;;;;;;;;;;;;;14.53;94.13;100770.69;4976240;28;19917;-75
2023/09/19 01:42:48;;;;;;;;;;;;;;;14.50;93.50;100779.63;4976871;28;19918;-74
2023/09/19 01:45:18;;;;;;;;;;;;;;;14.50;92.87;100769.09;4976877;28;19977;-74
2023/09/19 01:47:49;;;;;;;;;;;;;;;14.49;93.38;100774.44;4976963;28;19980;-74
2023/09/19 01:50:27;;;;;;;;;;;;;;;14.41;91.63;100772.25;4976619;28;19913;-74
2023/09/19 01:53:04;;;;;;;;;;;;;;;14.40;91.41;100771.38;4976455;28;19917;-74
2023/09/19 01:55:30;;;;;;;;;;;;;;;14.39;90.38;100776.78;4985529;28;19925;-74
2023/09/19 01:58:04;;;;;;;;;;;;;;;14.40;90.77;100774.03;4977688;28;19918;-74
2023/09/19 02:00:32;;;;;;;;;;;;;;;14.40;91.12;100774.03;4987539;28;19993;-74
2023/09/19 02:02:59;;;;;;;;;;;;;;;14.37;90.87;100775.97;4988949;28;20330;-74
2023/09/19 02:05:25;;;;;;;;;;;;;;;14.33;88.66;100777.09;4989163;28;19910;-74
2023/09/19 02:07:52;;;;;;;;;;;;;;;14.36;88.80;100777.78;4976698;28;20120;-74
2023/09/19 02:10:18;;;;;;;;;;;;;;;14.39;89.36;100784.66;4977999;28;19922;-74
2023/09/19 02:12:43;;;;;;;;;;;;;;;14.41;90.08;100772.25;4992602;28;19956;-75
2023/09/19 02:15:09;;;;;;;;;;;;;;;14.42;90.65;100773.94;4977844;28;19921;-75
2023/09/19 02:17:34;;;;;;;;;;;;;;;14.42;91.57;100762.56;4993002;28;19909;-75
2023/09/19 02:20:00;;;;;;;;;;;;;;;14.45;92.00;100762.38;4975856;28;19918;-74
2023/09/19 02:22:26;;;;;;;;;;;;;;;14.44;92.28;100769.41;4976206;28;19982;-74
2023/09/19 02:24:58;;;;;;;;;;;;;;;14.44;92.51;100772.06;4977233;28;19918;-74
2023/09/19 02:27:23;;;;;;;;;;;;;;;14.46;92.64;100777.25;4977518;28;19918;-73
2023/09/19 02:29:49;;;;;;;;;;;;;;;14.43;92.38;100787.97;4977202;28;19929;-73
2023/09/19 02:32:14;;;;;;;;;;;;;;;14.41;92.48;100785.44;4973225;28;19914;-73
2023/09/19 02:34:41;;;;;;;;;;;;;;;14.39;91.04;100787.31;4975146;28;19913;-73
2023/09/19 02:37:08;;;;;;;;;;;;;;;14.39;91.45;100792.56;4978144;28;20212;-73
2023/09/19 02:39:34;;;;;;;;;;;;;;;14.40;91.96;100787.19;4985936;28;19919;-73
2023/09/19 02:41:59;;;;;;;;;;;;;;;14.40;91.73;100795.09;4975577;28;19918;-74
2023/09/19 02:44:25;;;;;;;;;;;;;;;14.38;91.99;100789.06;4975507;28;19958;-73
2023/09/19 02:46:51;;;;;;;;;;;;;;;14.37;91.56;100778.63;4975474;28;19949;-74
2023/09/19 02:49:17;;;;;;;;;;;;;;;14.40;91.51;100779.28;4975624;28;19910;-73
2023/09/19 02:51:42;;;;;;;;;;;;;;;14.42;92.19;100775.72;4975649;28;19923;-74
2023/09/19 02:54:09;;;;;;;;;;;;;;;14.44;92.57;100768.59;4977024;28;19914;-73
2023/09/19 02:56:35;;;;;;;;;;;;;;;14.42;92.54;100773.94;4975955;28;19925;-73
2023/09/19 02:59:01;;;;;;;;;;;;;;;14.42;92.36;100773.09;4976890;28;19951;-74
2023/09/19 03:01:28;;;;;;;;;;;;;;;14.44;92.52;100774.69;4975839;28;20147;-73
2023/09/19 03:03:53;;;;;;;;;;;;;;;14.46;92.62;100778.13;4975279;28;19964;-74
2023/09/19 03:06:19;;;;;;;;;;;;;;;14.47;93.03;100781.59;4981205;28;19921;-73
2023/09/19 03:08:49;;;;;;;;;;;;;;;14.48;93.25;100770.09;4965858;28;19985;-73
2023/09/19 03:11:18;;;;;;;;;;;;;;;14.48;93.09;100772.72;4975533;28;20267;-73
2023/09/19 03:13:45;;;;;;;;;;;;;;;14.47;93.20;100784.22;4975224;28;20008;-73
2023/09/19 03:16:11;;;;;;;;;;;;;;;14.47;93.37;100792.13;4969546;28;19917;-73
2023/09/19 03:18:37;;;;;;;;;;;;;;;14.46;92.38;100785.16;4976647;28;19993;-73
2023/09/19 03:21:02;;;;;;;;;;;;;;;14.45;91.53;100778.19;4973358;28;19909;-73
2023/09/19 03:23:28;;;;;;;;;;;;;;;14.46;91.29;100783.38;4991738;28;19925;-74
2023/09/19 03:25:54;;;;;;;;;;;;;;;14.48;91.51;100785.91;4985045;28;19925;-73
2023/09/19 03:28:20;;;;;;;;;;;;;;;14.48;91.68;100793.81;4976657;28;19917;-73
2023/09/19 03:30:46;;;;;;;;;;;;;;;14.46;92.46;100778.13;4976626;28;20105;-73
2023/09/19 03:33:12;;;;;;;;;;;;;;;14.46;93.75;100783.38;4974997;28;19918;-73
2023/09/19 03:35:38;;;;;;;;;;;;;;;14.44;94.35;100776.47;4975060;28;19949;-73
2023/09/19 03:38:04;;;;;;;;;;;;;;;14.43;94.59;100767.75;4970719;28;19918;-73
2023/09/19 03:40:29;;;;;;;;;;;;;;;14.42;94.90;100758.13;4962216;28;19917;-73
2023/09/19 03:42:55;;;;;;;;;;;;;;;14.46;95.10;100786.00;4975146;28;19940;-73
2023/09/19 03:45:20;;;;;;;;;;;;;;;14.42;95.50;100787.09;4974921;28;19925;-73
2023/09/19 03:47:49;;;;;;;;;;;;;;;14.43;95.78;100801.16;4975270;28;20124;-73
2023/09/19 03:50:18;;;;;;;;;;;;;;;14.46;95.76;100798.31;4972942;28;20006;-73
2023/09/19 03:52:44;;;;;;;;;;;;;;;14.45;95.89;100801.91;4991146;28;20189;-73
2023/09/19 03:55:09;;;;;;;;;;;;;;;14.46;96.10;100795.69;4974925;28;19993;-73
2023/09/19 03:57:35;;;;;;;;;;;;;;;14.47;96.09;100800.88;4975248;28;19917;-73
2023/09/19 04:00:00;;;;;;;;;;;;;;;14.47;96.33;100808.78;4974532;28;19933;-73
2023/09/19 04:02:32;;;;;;;;;;;;;;;14.46;96.24;100807.09;4973211;28;19948;-73
2023/09/19 04:04:58;;;;;;;;;;;;;;;14.44;96.13;100811.56;4958347;28;20215;-73
2023/09/19 04:07:25;;;;;;;;;;;;;;;14.46;96.36;100803.59;4974800;28;20201;-73
2023/09/19 04:09:53;;;;;;;;;;;;;;;14.47;96.34;100814.03;4971127;28;20267;-73
2023/09/19 04:12:18;;;;;;;;;;;;;;;14.47;96.14;100821.94;4986052;28;20270;-73
2023/09/19 04:14:44;;;;;;;;;;;;;;;14.48;96.13;100814.88;4962204;28;19914;-74
2023/09/19 04:17:10;;;;;;;;;;;;;;;14.49;96.39;100822.72;4973815;28;20217;-73
2023/09/19 04:19:36;;;;;;;;;;;;;;;14.49;96.02;100830.63;4974666;28;19918;-73
2023/09/19 04:22:02;;;;;;;;;;;;;;;14.44;95.80;100829.19;4974885;28;20105;-74
2023/09/19 04:24:28;;;;;;;;;;;;;;;14.48;96.03;100822.78;4974455;28;20331;-73
2023/09/19 04:26:53;;;;;;;;;;;;;;;14.43;95.49;100820.44;4971223;28;19972;-73
2023/09/19 04:29:19;;;;;;;;;;;;;;;14.44;95.81;100826.53;4977750;28;19933;-73
2023/09/19 04:31:45;;;;;;;;;;;;;;;14.46;95.32;100835.22;4990642;28;19922;-73
2023/09/19 04:34:17;;;;;;;;;;;;;;;14.49;95.44;100821.88;4973449;28;20377;-73
2023/09/19 04:36:43;;;;;;;;;;;;;;;14.51;95.86;100820.00;4969285;28;19917;-73
2023/09/19 04:39:10;;;;;;;;;;;;;;;14.49;95.73;100827.13;4961940;28;19918;-73
2023/09/19 04:41:38;;;;;;;;;;;;;;;14.50;95.93;100824.41;4961414;28;19918;-73
2023/09/19 04:44:04;;;;;;;;;;;;;;;14.49;95.94;100830.63;4974142;28;19921;-73
2023/09/19 04:46:30;;;;;;;;;;;;;;;14.49;96.16;100829.78;4990623;28;19964;-73
2023/09/19 04:48:55;;;;;;;;;;;;;;;14.50;96.61;100829.69;4974458;28;19918;-74
2023/09/19 04:51:20;;;;;;;;;;;;;;;14.49;96.63;100835.03;4974333;28;19945;-73
2023/09/19 04:53:46;;;;;;;;;;;;;;;14.47;96.94;100831.66;4973913;28;19918;-73
2023/09/19 04:56:13;;;;;;;;;;;;;;;14.44;96.96;100831.81;4990590;28;19914;-73
2023/09/19 04:58:39;;;;;;;;;;;;;;;14.44;97.10;100823.91;4975244;28;19980;-73
2023/09/19 05:01:04;;;;;;;;;;;;;;;14.45;97.39;100825.63;4969328;28;20221;-73
2023/09/19 05:03:29;;;;;;;;;;;;;;;14.45;97.52;100830.91;4973877;28;20067;-73
2023/09/19 05:05:55;;;;;;;;;;;;;;;14.44;97.59;100832.66;4990139;28;19968;-73
2023/09/19 05:08:22;;;;;;;;;;;;;;;14.45;97.33;100838.78;4973816;28;19957;-73
2023/09/19 05:10:47;;;;;;;;;;;;;;;14.47;97.46;100837.75;4973622;28;19921;-73
2023/09/19 05:13:13;;;;;;;;;;;;;;;14.49;97.52;100842.94;4973630;28;19985;-73
2023/09/19 05:15:39;;;;;;;;;;;;;;;14.48;97.10;100830.69;4989742;28;20152;-73
2023/09/19 05:18:06;;;;;;;;;;;;;;;14.46;97.07;100830.81;4974415;28;19939;-73
2023/09/19 05:20:36;;;;;;;;;;;;;;;14.48;97.07;100838.59;4973710;28;20229;-73
2023/09/19 05:23:02;;;;;;;;;;;;;;;14.48;96.94;100838.59;4978036;28;19925;-73
2023/09/19 05:25:37;;;;;;;;;;;;;;;14.46;96.76;100836.09;4977605;28;19925;-73
2023/09/19 05:28:05;;;;;;;;;;;;;;;14.46;97.14;100835.22;4971413;28;19965;-74
2023/09/19 05:30:31;;;;;;;;;;;;;;;14.43;96.45;100830.13;4978084;28;19929;-73
2023/09/19 05:32:56;;;;;;;;;;;;;;;14.42;96.73;100833.69;4959714;28;19938;-73
2023/09/19 05:35:22;;;;;;;;;;;;;;;14.39;96.85;100825.03;4969744;28;20177;-73
2023/09/19 05:37:50;;;;;;;;;;;;;;;14.38;96.62;100825.94;4959719;28;19930;-74
2023/09/19 05:40:16;;;;;;;;;;;;;;;14.37;96.53;100820.75;4973382;28;19925;-73
2023/09/19 05:42:43;;;;;;;;;;;;;;;14.42;96.84;100824.00;4957848;29;19912;-73
2023/09/19 05:45:12;;;;;;;;;;;;;;;14.43;96.89;100832.78;4968195;28;20204;-73
2023/09/19 05:47:37;;;;;;;;;;;;;;;14.44;97.09;100837.09;4978447;28;19977;-73
2023/09/19 05:50:02;;;;;;;;;;;;;;;14.43;97.15;100841.50;4978588;28;19922;-73
2023/09/19 05:52:28;;;;;;;;;;;;;;;14.43;97.29;100848.56;4978894;28;19914;-73
2023/09/19 05:54:54;;;;;;;;;;;;;;;14.42;97.49;100846.88;4976390;28;19918;-73
2023/09/19 05:57:19;;;;;;;;;;;;;;;14.41;97.73;100856.56;4974052;28;20150;-73
2023/09/19 05:59:45;;;;;;;;;;;;;;;14.42;98.14;100850.34;4976191;28;19997;-73
2023/09/19 06:02:12;;;;;;;;;;;;;;;14.42;98.02;100855.59;4975176;28;19953;-73
2023/09/19 06:04:40;;;;;;;;;;;;;;;14.44;98.36;100859.00;4975314;28;19925;-73
2023/09/19 06:07:06;;;;;;;;;;;;;;;14.43;98.62;100854.69;4972991;28;19925;-73
2023/09/19 06:09:32;;;;;;;;;;;;;;;14.45;98.83;100858.09;4974269;28;20154;-73
2023/09/19 06:11:57;;;;;;;;;;;;;;;14.49;98.93;100848.22;4976833;28;20216;-74
2023/09/19 06:14:24;;;;;;;;;;;;;;;14.50;98.93;100866.59;4991271;28;19922;-73
2023/09/19 06:16:50;;;;;;;;;;;;;;;14.49;99.09;100864.88;4961531;28;20098;-73
2023/09/19 06:19:15;;;;;;;;;;;;;;;14.51;99.40;100856.88;4974634;28;19925;-73
2023/09/19 06:21:40;;;;;;;;;;;;;;;14.49;99.34;100867.50;4975851;28;19918;-73
2023/09/19 06:24:06;;;;;;;;;;;;;;;14.50;99.24;100856.03;4992169;28;19918;-73
2023/09/19 06:26:32;;;;;;;;;;;;;;;14.50;99.26;100863.09;4975672;28;20326;-73
2023/09/19 06:28:57;;;;;;;;;;;;;;;14.55;99.39;100856.63;4976250;28;19918;-73
2023/09/19 06:31:26;;;;;;;;;;;;;;;14.54;99.30;100862.00;4959389;28;19937;-73
2023/09/19 06:33:51;;;;;;;;;;;;;;;14.54;99.13;100857.56;4958991;28;19947;-74
2023/09/19 06:36:17;;;;;;;;;;;;;;;14.49;99.58;100870.13;4976522;28;19918;-73
2023/09/19 06:38:42;;;;;;;;;;;;;;;14.49;99.59;100878.03;4958891;28;19945;-73
2023/09/19 06:41:08;;;;;;;;;;;;;;;14.52;99.82;100877.88;4971492;28;19925;-73
2023/09/19 06:43:34;;;;;;;;;;;;;;;14.56;99.62;100881.19;4977496;28;20065;-73
2023/09/19 06:46:00;;;;;;;;;;;;;;;14.52;99.45;100869.97;4972691;28;19922;-73
2023/09/19 06:48:26;;;;;;;;;;;;;;;14.49;99.94;100878.03;4973365;28;19918;-73
2023/09/19 06:50:52;;;;;;;;;;;;;;;14.52;99.88;100877.88;4972773;28;19922;-73
2023/09/19 06:53:18;;;;;;;;;;;;;;;14.52;100.00;100877.88;4973905;28;19989;-73
2023/09/19 06:55:43;;;;;;;;;;;;;;;14.52;99.86;100877.88;4973256;28;19922;-73
2023/09/19 06:58:10;;;;;;;;;;;;;;;14.51;99.67;100873.53;4969504;28;19918;-73
2023/09/19 07:00:37;;;;;;;;;;;;;;;14.56;99.63;100876.75;4971190;28;19940;-73
2023/09/19 07:03:11;;;;;;;;;;;;;;;14.61;99.56;100870.41;4974003;28;19918;-73
2023/09/19 07:05:37;;;;;;;;;;;;;;;14.59;99.09;100873.16;4969746;28;20208;-73
2023/09/19 07:08:05;;;;;;;;;;;;;;;14.64;99.13;100872.88;4972118;28;20244;-73
2023/09/19 07:10:32;;;;;;;;;;;;;;;14.64;99.17;100881.63;4962870;28;19957;-73
2023/09/19 07:13:01;;;;;;;;;;;;;;;14.67;99.23;100881.47;4972908;28;20201;-73
2023/09/19 07:15:27;;;;;;;;;;;;;;;14.69;99.47;100882.22;4968606;28;20005;-73
2023/09/19 07:17:56;;;;;;;;;;;;;;;14.73;99.43;100873.19;4969424;28;19993;-73
2023/09/19 07:20:22;;;;;;;;;;;;;;;14.69;99.42;100876.94;4967047;28;19925;-73
2023/09/19 07:22:48;;;;;;;;;;;;;;;14.75;99.28;100883.66;4972549;28;19918;-73
2023/09/19 07:25:13;;;;;;;;;;;;;;;14.80;99.36;100880.75;4970720;28;19965;-73
2023/09/19 07:27:39;;;;;;;;;;;;;;;14.81;99.51;100885.06;4967232;28;20128;-73
2023/09/19 07:30:05;;;;;;;;;;;;;;;14.81;99.49;100880.69;4969155;28;19922;-73
2023/09/19 07:32:30;;;;;;;;;;;;;;;14.84;99.88;100884.91;4974189;28;19922;-73
2023/09/19 07:34:56;;;;;;;;;;;;;;;14.85;100.00;100899.81;4973695;28;19918;-73
2023/09/19 07:37:21;;;;;;;;;;;;;;;14.86;100.00;100896.22;4967434;28;19930;-73
2023/09/19 07:39:47;;;;;;;;;;;;;;;14.84;99.90;100885.75;4971202;28;19929;-73
2023/09/19 07:42:17;;;;;;;;;;;;;;;14.86;99.92;100890.94;4971017;28;19990;-73
2023/09/19 07:44:43;;;;;;;;;;;;;;;14.86;100.00;100891.81;4969263;28;20141;-73
2023/09/19 07:47:09;;;;;;;;;;;;;;;14.88;100.00;100895.22;4967858;28;19918;-73
2023/09/19 07:49:34;;;;;;;;;;;;;;;14.92;100.00;100887.97;4969274;28;19949;-73
2023/09/19 07:52:00;;;;;;;;;;;;;;;14.93;99.73;100879.09;4969037;28;19922;-73
2023/09/19 07:54:30;;;;;;;;;;;;;;;14.96;99.75;100874.50;4969945;28;19918;-73
2023/09/19 07:56:56;;;;;;;;;;;;;;;14.98;99.77;100887.59;4969535;28;19925;-73
2023/09/19 07:59:21;;;;;;;;;;;;;;;15.00;99.52;100888.34;4968008;28;20329;-73
2023/09/19 08:01:47;;;;;;;;;;;;;;;15.02;99.35;100886.47;4971595;28;19934;-73
2023/09/19 08:04:12;;;;;;;;;;;;;;;15.01;99.23;100876.00;4969918;28;19912;-73
2023/09/19 08:06:39;;;;;;;;;;;;;;;15.07;98.76;100884.41;4971605;28;19973;-73
2023/09/19 08:09:07;;;;;;;;;;;;;;;15.09;99.36;100885.19;4974604;28;19921;-73
2023/09/19 08:11:33;;;;;;;;;;;;;;;15.12;99.71;100877.09;4975060;28;19944;-73
2023/09/19 08:13:58;;;;;;;;;;;;;;;15.15;99.19;100876.91;4975497;28;20357;-73
2023/09/19 08:16:24;;;;;;;;;;;;;;;15.18;99.37;100869.75;4972737;28;19921;-73
2023/09/19 08:18:55;;;;;;;;;;;;;;;15.20;99.65;100870.50;4970616;28;20004;-73
2023/09/19 08:21:21;;;;;;;;;;;;;;;15.25;99.06;100868.44;4974158;28;19933;-73
2023/09/19 08:23:46;;;;;;;;;;;;;;;15.25;98.55;100864.03;4972807;28;19910;-73
2023/09/19 08:26:12;;;;;;;;;;;;;;;15.27;98.80;100877.97;4973115;28;20209;-73
2023/09/19 08:28:40;;;;;;;;;;;;;;;15.29;98.77;100878.72;4973229;28;19925;-73
2023/09/19 08:31:06;;;;;;;;;;;;;;;15.30;97.38;100869.88;4973475;28;19967;-73
2023/09/19 08:33:32;;;;;;;;;;;;;;;15.32;97.09;100865.34;4975210;28;19918;-73
2023/09/19 08:35:57;;;;;;;;;;;;;;;15.31;96.53;100873.34;4970974;28;20209;-73
2023/09/19 08:38:23;;;;;;;;;;;;;;;15.31;97.08;100870.72;4972549;28;19996;-73
2023/09/19 08:40:48;;;;;;;;;;;;;;;15.31;96.87;100865.44;4973360;28;19989;-73
2023/09/19 08:43:14;;;;;;;;;;;;;;;15.30;96.77;100874.31;4974171;28;19918;-73
2023/09/19 08:45:40;;;;;;;;;;;;;;;15.27;96.72;100875.31;4973942;28;19918;-73
2023/09/19 08:48:05;;;;;;;;;;;;;;;15.25;96.43;100863.19;4975232;28;19927;-73
2023/09/19 08:50:31;;;;;;;;;;;;;;;15.28;96.47;100855.06;4975333;28;19948;-73
2023/09/19 08:53:00;;;;;;;;;;;;;;;15.29;97.06;100852.34;4977680;28;19921;-73
2023/09/19 08:55:29;;;;;;;;;;;;;;;15.33;97.22;100867.06;4990580;28;20114;-73
2023/09/19 08:58:03;;;;;;;;;;;;;;;15.34;97.02;100874.00;4977872;28;19993;-73
2023/09/19 09:00:28;;;;;;;;;;;;;;;15.35;96.99;100854.63;4977897;28;20364;-73
2023/09/19 09:02:55;;;;;;;;;;;;;;;15.41;97.84;100858.66;4975754;28;19945;-73
2023/09/19 09:05:22;;;;;;;;;;;;;;;15.50;98.05;100852.00;4977847;28;19937;-73
2023/09/19 09:07:50;;;;;;;;;;;;;;;15.58;98.45;100864.72;4977469;28;19921;-73
2023/09/19 09:10:16;;;;;;;;;;;;;;;15.58;97.57;100873.47;4977682;28;20114;-73
2023/09/19 09:12:43;;;;;;;;;;;;;;;15.59;97.01;100861.13;4973431;28;19992;-74
2023/09/19 09:15:11;;;;;;;;;;;;;;;15.62;97.85;100856.50;4977404;28;19920;-73
2023/09/19 09:17:37;;;;;;;;;;;;;;;15.67;98.26;100865.00;4964552;28;19914;-73
2023/09/19 09:20:03;;;;;;;;;;;;;;;15.70;97.36;100866.59;4978173;28;20113;-73
2023/09/19 09:22:29;;;;;;;;;;;;;;;15.72;97.49;100851.50;4961721;28;19965;-73
2023/09/19 09:24:58;;;;;;;;;;;;;;;15.70;96.63;100867.44;4977264;28;20251;-73
2023/09/19 09:27:23;;;;;;;;;;;;;;;15.70;96.89;100856.03;4967038;28;20112;-73
2023/09/19 09:29:49;;;;;;;;;;;;;;;15.73;96.97;100869.91;4960707;28;19946;-73
2023/09/19 09:32:18;;;;;;;;;;;;;;;15.75;96.50;100867.19;4973160;28;20126;-73
2023/09/19 09:34:44;;;;;;;;;;;;;;;15.79;96.40;100867.84;4982248;28;19921;-73
2023/09/19 09:37:15;;;;;;;;;;;;;;;15.84;95.99;100856.03;4975546;28;19980;-73
2023/09/19 09:39:40;;;;;;;;;;;;;;;15.88;96.20;100859.34;4965448;28;19982;-73
2023/09/19 09:42:06;;;;;;;;;;;;;;;15.91;96.07;100851.22;4969717;28;19919;-73
2023/09/19 09:44:32;;;;;;;;;;;;;;;15.94;95.63;100840.50;4972166;28;19918;-73
2023/09/19 09:47:27;;;;;;;;;;;;;;;15.97;95.75;100850.00;4968325;28;19948;-73
2023/09/19 09:49:54;;;;;;;;;;;;;;;15.97;95.86;100852.63;4977411;28;19913;-73
2023/09/19 09:52:24;;;;;;;;;;;;;;;16.01;96.03;100856.78;4975586;28;20017;-73
2023/09/19 09:55:00;;;;;;;;;;;;;;;16.05;96.33;100843.28;4961371;28;19918;-73
2023/09/19 09:57:26;;;;;;;;;;;;;;;16.09;95.64;100849.22;4976889;28;20189;-73
2023/09/19 09:59:57;;;;;;;;;;;;;;;16.10;95.93;100832.44;4975182;28;19924;-73
2023/09/19 10:02:32;;;;;;;;;;;;;;;16.11;95.03;100844.69;4975660;28;20216;-73
2023/09/19 10:05:14;;;;;;;;;;;;;;;16.12;95.14;100849.03;4976339;28;19914;-73
2023/09/19 10:07:49;;;;;;;;;;;;;;;16.14;94.59;100839.22;4961971;28;19929;-73
2023/09/19 10:10:22;;;;;;;;;;;;;;;16.16;93.61;100849.69;4974838;28;19925;-73
2023/09/19 10:12:48;;;;;;;;;;;;;;;16.16;93.01;100834.69;4972981;28;19917;-73
2023/09/19 10:15:20;;;;;;;;;;;;;;;16.21;93.24;100839.66;4973655;28;20276;-73
2023/09/19 10:17:46;;;;;;;;;;;;;;;16.23;93.69;100827.22;4975770;28;20201;-73
2023/09/19 10:20:18;;;;;;;;;;;;;;;16.26;94.09;100814.66;4974655;28;19969;-73
2023/09/19 10:22:56;;;;;;;;;;;;;;;16.29;93.75;100818.88;4975063;28;20225;-73
2023/09/19 10:25:22;;;;;;;;;;;;;;;16.33;94.55;100817.72;4975571;28;19925;-73
2023/09/19 10:27:50;;;;;;;;;;;;;;;16.38;94.76;100828.00;4974996;28;19918;-73
2023/09/19 10:30:16;;;;;;;;;;;;;;;16.43;94.01;100807.41;4973381;28;19922;-73
2023/09/19 10:32:42;;;;;;;;;;;;;;;16.49;93.99;100799.06;4970336;28;20216;-73
2023/09/19 10:35:07;;;;;;;;;;;;;;;16.57;94.03;100822.34;4976006;28;19918;-74
2023/09/19 10:37:34;;;;;;;;;;;;;;;16.65;94.19;100842.06;4975626;28;19981;-73
2023/09/19 10:39:59;;;;;;;;;;;;;;;16.67;92.71;100803.13;4964317;28;19910;-73
2023/09/19 10:42:28;;;;;;;;;;;;;;;16.69;91.49;100816.25;4970142;28;19925;-74
2023/09/19 10:44:55;;;;;;;;;;;;;;;16.72;92.94;100809.91;4975778;28;19924;-73
2023/09/19 10:47:24;;;;;;;;;;;;;;;16.75;91.10;100804.41;4973227;28;19948;-74
2023/09/19 10:49:49;;;;;;;;;;;;;;;16.78;90.48;100798.94;4976785;28;19916;-73
2023/09/19 10:52:19;;;;;;;;;;;;;;;16.83;91.08;100799.50;4968391;28;19969;-73
2023/09/19 10:54:51;;;;;;;;;;;;;;;16.85;91.84;100800.25;4976040;28;20254;-73
2023/09/19 10:57:23;;;;;;;;;;;;;;;16.87;91.37;100785.94;4975899;28;20165;-74
2023/09/19 11:00:21;;;;;;;;;;;;;;;16.87;89.83;100795.69;4975532;28;19920;-74
2023/09/19 11:03:06;;;;;;;;;;;;;;;16.87;90.33;100803.63;4976507;28;19917;-74
2023/09/19 11:05:32;;;;;;;;;;;;;;;16.84;89.10;100817.88;4975007;28;19940;-73
2023/09/19 11:08:00;;;;;;;;;;;;;;;16.81;90.20;100810.16;4988979;28;19910;-74
2023/09/19 11:10:44;;;;;;;;;;;;;;;16.80;90.27;100797.88;4974444;28;19961;-74
2023/09/19 11:13:31;;;;;;;;;;;;;;;16.85;90.93;100797.59;4975218;28;19967;-74
2023/09/19 11:15:59;;;;;;;;;;;;;;;16.86;90.76;100794.84;4976040;28;20224;-74
2023/09/19 11:18:39;;;;;;;;;;;;;;;16.86;90.61;100770.19;4976123;28;19918;-74
2023/09/19 11:21:24;;;;;;;;;;;;;;;16.89;90.18;100791.16;4975742;28;19918;-74
2023/09/19 11:24:12;;;;;;;;;;;;;;;16.88;91.14;100785.00;4961924;28;19914;-74
2023/09/19 11:26:47;;;;;;;;;;;;;;;16.86;90.23;100783.41;4975124;28;19926;-74
2023/09/19 11:29:25;;;;;;;;;;;;;;;16.84;90.05;100783.50;4976889;28;19914;-73
2023/09/19 11:31:51;;;;;;;;;;;;;;;16.83;90.18;100775.69;4969336;28;19969;-74
2023/09/19 11:34:35;;;;;;;;;;;;;;;16.83;90.22;100770.41;4966242;28;19906;-73
2023/09/19 11:37:03;;;;;;;;;;;;;;;16.80;90.76;100779.34;4973982;28;19918;-73
2023/09/19 11:39:29;;;;;;;;;;;;;;;16.76;89.68;100772.59;4975462;28;19920;-74
2023/09/19 11:41:56;;;;;;;;;;;;;;;16.73;90.65;100764.84;4970585;28;19954;-73
2023/09/19 11:44:33;;;;;;;;;;;;;;;16.69;90.67;100781.88;4966883;28;19913;-74
2023/09/19 11:46:59;;;;;;;;;;;;;;;16.70;90.81;100775.66;4971015;28;19925;-74
2023/09/19 11:49:31;;;;;;;;;;;;;;;16.69;90.98;100768.66;4975707;28;19922;-74
2023/09/19 11:51:59;;;;;;;;;;;;;;;16.69;91.55;100788.00;4974734;28;19922;-74
2023/09/19 11:54:28;;;;;;;;;;;;;;;16.69;92.08;100766.00;4976550;28;19968;-73
2023/09/19 11:56:54;;;;;;;;;;;;;;;16.72;92.48;100783.47;4970069;28;19925;-74
2023/09/19 11:59:39;;;;;;;;;;;;;;;16.76;92.37;100772.59;4974002;28;19957;-73
2023/09/19 12:02:05;;;;;;;;;;;;;;;16.83;91.74;100773.91;4973633;28;19933;-74
2023/09/19 12:04:37;;;;;;;;;;;;;;;16.86;91.61;100778.97;4974869;28;19988;-74
2023/09/19 12:07:15;;;;;;;;;;;;;;;16.94;91.88;100774.97;4986925;28;19918;-73
2023/09/19 12:09:47;;;;;;;;;;;;;;;16.98;91.69;100779.94;4989334;28;19989;-74
2023/09/19 12:12:19;;;;;;;;;;;;;;;17.02;91.52;100770.81;4973163;28;19965;-74
2023/09/19 12:14:48;;;;;;;;;;;;;;;17.03;91.19;100769.88;4992114;28;20208;-74
2023/09/19 12:17:13;;;;;;;;;;;;;;;17.06;90.78;100767.03;4957852;28;20245;-73
2023/09/19 12:19:39;;;;;;;;;;;;;;;17.09;91.77;100758.03;4970679;28;19918;-73
2023/09/19 12:22:04;;;;;;;;;;;;;;;17.10;90.37;100761.50;4970761;28;19926;-73
2023/09/19 12:24:30;;;;;;;;;;;;;;;17.10;90.84;100780.03;4968954;28;19945;-74
2023/09/19 12:27:05;;;;;;;;;;;;;;;17.11;90.04;100769.34;4972045;28;20198;-73
2023/09/19 12:29:32;;;;;;;;;;;;;;;17.11;89.95;100768.50;4987122;28;20101;-74
2023/09/19 12:31:58;;;;;;;;;;;;;;;17.12;91.11;100779.00;4972375;28;19949;-73
2023/09/19 12:34:27;;;;;;;;;;;;;;;17.15;91.39;100785.84;4973287;28;20139;-73
2023/09/19 12:37:22;;;;;;;;;;;;;;;17.13;90.71;100787.78;4978796;28;19910;-73
2023/09/19 12:39:49;;;;;;;;;;;;;;;17.18;90.55;100780.38;4992983;28;20409;-73
2023/09/19 12:42:18;;;;;;;;;;;;;;;17.23;90.89;100780.91;4973307;28;20234;-73
2023/09/19 12:44:45;;;;;;;;;;;;;;;17.26;90.27;100784.19;4974043;28;20100;-73